sensor_id;sensor_type;location;lat;lon;timestamp;P1;durP1;ratioP1;P2;durP2;ratioP2
29812;SDS011;16707;48.106;11.548;2023-08-21T00:00:56;8.77;;;7.88;;
29812;SDS011;16707;48.106;11.548;2023-08-21T00:03:23;9.10;;;8.18;;
29812;SDS011;16707;48.106;11.548;2023-08-21T00:05:50;10.82;;;8.57;;
29812;SDS011;16707;48.106;11.548;2023-08-21T00:08:17;10.15;;;8.65;;
29812;SDS011;16707;48.106;11.548;2023-08-21T00:10:45;12.48;;;9.23;;
29812;SDS011;16707;48.106;11.548;2023-08-21T00:13:12;9.55;;;8.18;;
29812;SDS011;16707;48.106;11.548;2023-08-21T00:15:39;9.43;;;8.35;;
29812;SDS011;16707;48.106;11.548;2023-08-21T00:18:06;10.23;;;8.75;;
29812;SDS011;16707;48.106;11.548;2023-08-21T00:20:33;10.20;;;8.75;;
29812;SDS011;16707;48.106;11.548;2023-08-21T00:23:00;11.75;;;8.93;;
29812;SDS011;16707;48.106;11.548;2023-08-21T00:25:27;11.57;;;8.52;;
29812;SDS011;16707;48.106;11.548;2023-08-21T00:27:56;11.23;;;8.50;;
29812;SDS011;16707;48.106;11.548;2023-08-21T00:30:22;10.23;;;8.98;;
29812;SDS011;16707;48.106;11.548;2023-08-21T00:32:49;10.75;;;8.60;;
29812;SDS011;16707;48.106;11.548;2023-08-21T00:35:16;13.48;;;9.68;;
29812;SDS011;16707;48.106;11.548;2023-08-21T00:37:43;14.38;;;11.52;;
29812;SDS011;16707;48.106;11.548;2023-08-21T00:40:11;12.43;;;9.88;;
29812;SDS011;16707;48.106;11.548;2023-08-21T00:42:39;12.38;;;10.10;;
29812;SDS011;16707;48.106;11.548;2023-08-21T00:45:08;12.25;;;10.18;;
29812;SDS011;16707;48.106;11.548;2023-08-21T00:47:36;11.15;;;9.90;;
29812;SDS011;16707;48.106;11.548;2023-08-21T00:50:04;11.10;;;8.52;;
29812;SDS011;16707;48.106;11.548;2023-08-21T00:52:34;10.85;;;8.95;;
29812;SDS011;16707;48.106;11.548;2023-08-21T00:55:02;11.68;;;9.75;;
29812;SDS011;16707;48.106;11.548;2023-08-21T00:57:30;10.43;;;9.32;;
29812;SDS011;16707;48.106;11.548;2023-08-21T00:59:59;10.82;;;8.93;;
29812;SDS011;16707;48.106;11.548;2023-08-21T01:02:28;11.80;;;10.48;;
29812;SDS011;16707;48.106;11.548;2023-08-21T01:04:55;12.90;;;10.00;;
29812;SDS011;16707;48.106;11.548;2023-08-21T01:07:22;11.70;;;9.88;;
29812;SDS011;16707;48.106;11.548;2023-08-21T01:09:50;13.60;;;10.43;;
29812;SDS011;16707;48.106;11.548;2023-08-21T01:12:29;11.63;;;9.90;;
29812;SDS011;16707;48.106;11.548;2023-08-21T01:15:03;10.50;;;8.93;;
29812;SDS011;16707;48.106;11.548;2023-08-21T01:17:36;12.52;;;9.18;;
29812;SDS011;16707;48.106;11.548;2023-08-21T01:20:05;10.60;;;9.55;;
29812;SDS011;16707;48.106;11.548;2023-08-21T01:22:35;12.65;;;9.77;;
29812;SDS011;16707;48.106;11.548;2023-08-21T01:25:06;12.02;;;10.45;;
29812;SDS011;16707;48.106;11.548;2023-08-21T01:27:34;13.02;;;10.20;;
29812;SDS011;16707;48.106;11.548;2023-08-21T01:30:02;13.88;;;10.40;;
29812;SDS011;16707;48.106;11.548;2023-08-21T01:32:33;12.98;;;10.15;;
29812;SDS011;16707;48.106;11.548;2023-08-21T01:35:07;11.32;;;10.15;;
29812;SDS011;16707;48.106;11.548;2023-08-21T01:37:35;11.40;;;9.63;;
29812;SDS011;16707;48.106;11.548;2023-08-21T01:40:03;11.98;;;9.38;;
29812;SDS011;16707;48.106;11.548;2023-08-21T01:42:32;11.98;;;10.15;;
29812;SDS011;16707;48.106;11.548;2023-08-21T01:45:01;11.65;;;9.88;;
29812;SDS011;16707;48.106;11.548;2023-08-21T01:47:29;11.23;;;9.88;;
29812;SDS011;16707;48.106;11.548;2023-08-21T01:49:56;10.57;;;9.48;;
29812;SDS011;16707;48.106;11.548;2023-08-21T01:52:23;12.73;;;10.20;;
29812;SDS011;16707;48.106;11.548;2023-08-21T01:54:50;13.02;;;9.85;;
29812;SDS011;16707;48.106;11.548;2023-08-21T01:57:19;11.57;;;10.20;;
29812;SDS011;16707;48.106;11.548;2023-08-21T01:59:46;11.38;;;9.75;;
29812;SDS011;16707;48.106;11.548;2023-08-21T02:02:14;11.98;;;10.05;;
29812;SDS011;16707;48.106;11.548;2023-08-21T02:04:40;11.35;;;9.52;;
29812;SDS011;16707;48.106;11.548;2023-08-21T02:07:08;11.13;;;9.60;;
29812;SDS011;16707;48.106;11.548;2023-08-21T02:09:35;11.73;;;9.38;;
29812;SDS011;16707;48.106;11.548;2023-08-21T02:12:02;10.98;;;9.45;;
29812;SDS011;16707;48.106;11.548;2023-08-21T02:14:31;12.05;;;9.35;;
29812;SDS011;16707;48.106;11.548;2023-08-21T02:16:58;11.05;;;9.52;;
29812;SDS011;16707;48.106;11.548;2023-08-21T02:19:25;10.95;;;9.63;;
29812;SDS011;16707;48.106;11.548;2023-08-21T02:21:52;11.20;;;9.57;;
29812;SDS011;16707;48.106;11.548;2023-08-21T02:24:18;15.57;;;12.10;;
29812;SDS011;16707;48.106;11.548;2023-08-21T02:26:45;17.30;;;11.68;;
29812;SDS011;16707;48.106;11.548;2023-08-21T02:29:12;13.43;;;11.05;;
29812;SDS011;16707;48.106;11.548;2023-08-21T02:31:41;13.10;;;11.70;;
29812;SDS011;16707;48.106;11.548;2023-08-21T02:34:07;16.25;;;13.20;;
29812;SDS011;16707;48.106;11.548;2023-08-21T02:36:34;15.73;;;13.52;;
29812;SDS011;16707;48.106;11.548;2023-08-21T02:39:01;16.55;;;12.80;;
29812;SDS011;16707;48.106;11.548;2023-08-21T02:41:29;15.93;;;11.75;;
29812;SDS011;16707;48.106;11.548;2023-08-21T02:43:56;14.85;;;12.77;;
29812;SDS011;16707;48.106;11.548;2023-08-21T02:46:23;15.65;;;11.45;;
29812;SDS011;16707;48.106;11.548;2023-08-21T02:48:51;14.32;;;12.60;;
29812;SDS011;16707;48.106;11.548;2023-08-21T02:51:18;15.57;;;12.07;;
29812;SDS011;16707;48.106;11.548;2023-08-21T02:53:45;14.90;;;11.88;;
29812;SDS011;16707;48.106;11.548;2023-08-21T02:56:12;17.25;;;13.20;;
29812;SDS011;16707;48.106;11.548;2023-08-21T02:58:39;15.52;;;12.70;;
29812;SDS011;16707;48.106;11.548;2023-08-21T03:01:06;15.07;;;12.93;;
29812;SDS011;16707;48.106;11.548;2023-08-21T03:03:33;19.10;;;14.15;;
29812;SDS011;16707;48.106;11.548;2023-08-21T03:06:02;16.92;;;13.98;;
29812;SDS011;16707;48.106;11.548;2023-08-21T03:08:29;16.42;;;13.50;;
29812;SDS011;16707;48.106;11.548;2023-08-21T03:10:56;16.38;;;13.55;;
29812;SDS011;16707;48.106;11.548;2023-08-21T03:13:25;14.73;;;12.40;;
29812;SDS011;16707;48.106;11.548;2023-08-21T03:15:52;14.88;;;11.98;;
29812;SDS011;16707;48.106;11.548;2023-08-21T03:18:19;12.40;;;11.00;;
29812;SDS011;16707;48.106;11.548;2023-08-21T03:20:46;13.00;;;11.02;;
29812;SDS011;16707;48.106;11.548;2023-08-21T03:23:15;14.65;;;11.10;;
29812;SDS011;16707;48.106;11.548;2023-08-21T03:25:41;14.23;;;11.32;;
29812;SDS011;16707;48.106;11.548;2023-08-21T03:28:09;11.77;;;9.98;;
29812;SDS011;16707;48.106;11.548;2023-08-21T03:30:36;12.07;;;10.80;;
29812;SDS011;16707;48.106;11.548;2023-08-21T03:33:05;13.10;;;10.60;;
29812;SDS011;16707;48.106;11.548;2023-08-21T03:35:33;14.48;;;11.38;;
29812;SDS011;16707;48.106;11.548;2023-08-21T03:38:00;13.07;;;11.63;;
29812;SDS011;16707;48.106;11.548;2023-08-21T03:40:28;13.45;;;11.95;;
29812;SDS011;16707;48.106;11.548;2023-08-21T03:42:55;14.18;;;12.50;;
29812;SDS011;16707;48.106;11.548;2023-08-21T03:45:24;14.43;;;11.73;;
29812;SDS011;16707;48.106;11.548;2023-08-21T03:47:51;13.95;;;11.55;;
29812;SDS011;16707;48.106;11.548;2023-08-21T03:50:18;13.57;;;11.73;;
29812;SDS011;16707;48.106;11.548;2023-08-21T03:52:45;16.05;;;13.25;;
29812;SDS011;16707;48.106;11.548;2023-08-21T03:55:12;16.40;;;13.55;;
29812;SDS011;16707;48.106;11.548;2023-08-21T03:57:40;19.23;;;13.93;;
29812;SDS011;16707;48.106;11.548;2023-08-21T04:00:07;17.90;;;14.00;;
29812;SDS011;16707;48.106;11.548;2023-08-21T04:02:36;16.70;;;13.57;;
29812;SDS011;16707;48.106;11.548;2023-08-21T04:05:03;13.77;;;12.30;;
29812;SDS011;16707;48.106;11.548;2023-08-21T04:07:33;15.23;;;12.70;;
29812;SDS011;16707;48.106;11.548;2023-08-21T04:09:59;15.75;;;12.57;;
29812;SDS011;16707;48.106;11.548;2023-08-21T04:12:27;13.50;;;10.85;;
29812;SDS011;16707;48.106;11.548;2023-08-21T04:14:55;12.07;;;10.00;;
29812;SDS011;16707;48.106;11.548;2023-08-21T04:17:22;13.00;;;10.05;;
29812;SDS011;16707;48.106;11.548;2023-08-21T04:19:49;14.10;;;10.88;;
29812;SDS011;16707;48.106;11.548;2023-08-21T04:22:16;11.30;;;9.25;;
29812;SDS011;16707;48.106;11.548;2023-08-21T04:24:44;12.50;;;9.98;;
29812;SDS011;16707;48.106;11.548;2023-08-21T04:27:11;11.57;;;9.77;;
29812;SDS011;16707;48.106;11.548;2023-08-21T04:29:38;14.40;;;10.48;;
29812;SDS011;16707;48.106;11.548;2023-08-21T04:32:06;12.32;;;9.98;;
29812;SDS011;16707;48.106;11.548;2023-08-21T04:34:34;12.35;;;10.00;;
29812;SDS011;16707;48.106;11.548;2023-08-21T04:37:01;14.38;;;10.60;;
29812;SDS011;16707;48.106;11.548;2023-08-21T04:39:31;11.95;;;9.57;;
29812;SDS011;16707;48.106;11.548;2023-08-21T04:41:58;14.52;;;9.65;;
29812;SDS011;16707;48.106;11.548;2023-08-21T04:44:25;11.77;;;8.90;;
29812;SDS011;16707;48.106;11.548;2023-08-21T04:46:52;11.95;;;9.07;;
29812;SDS011;16707;48.106;11.548;2023-08-21T04:49:20;10.68;;;9.00;;
29812;SDS011;16707;48.106;11.548;2023-08-21T04:51:47;9.63;;;8.35;;
29812;SDS011;16707;48.106;11.548;2023-08-21T04:54:14;11.68;;;8.77;;
29812;SDS011;16707;48.106;11.548;2023-08-21T04:56:42;10.88;;;9.18;;
29812;SDS011;16707;48.106;11.548;2023-08-21T04:59:09;11.63;;;8.50;;
29812;SDS011;16707;48.106;11.548;2023-08-21T05:01:36;10.95;;;8.80;;
29812;SDS011;16707;48.106;11.548;2023-08-21T05:04:03;13.60;;;8.43;;
29812;SDS011;16707;48.106;11.548;2023-08-21T05:06:31;9.25;;;6.70;;
29812;SDS011;16707;48.106;11.548;2023-08-21T05:08:58;8.50;;;6.82;;
29812;SDS011;16707;48.106;11.548;2023-08-21T05:11:25;8.10;;;6.32;;
29812;SDS011;16707;48.106;11.548;2023-08-21T05:13:52;6.55;;;5.72;;
29812;SDS011;16707;48.106;11.548;2023-08-21T05:16:19;8.77;;;6.25;;
29812;SDS011;16707;48.106;11.548;2023-08-21T05:18:46;6.72;;;6.05;;
29812;SDS011;16707;48.106;11.548;2023-08-21T05:21:14;9.95;;;5.13;;
29812;SDS011;16707;48.106;11.548;2023-08-21T05:23:42;5.82;;;5.15;;
29812;SDS011;16707;48.106;11.548;2023-08-21T05:26:09;5.55;;;4.93;;
29812;SDS011;16707;48.106;11.548;2023-08-21T05:28:36;5.95;;;5.30;;
29812;SDS011;16707;48.106;11.548;2023-08-21T05:31:04;9.10;;;5.78;;
29812;SDS011;16707;48.106;11.548;2023-08-21T05:33:31;6.10;;;5.25;;
29812;SDS011;16707;48.106;11.548;2023-08-21T05:35:59;12.05;;;5.90;;
29812;SDS011;16707;48.106;11.548;2023-08-21T05:38:25;9.30;;;5.28;;
29812;SDS011;16707;48.106;11.548;2023-08-21T05:40:57;6.60;;;5.55;;
29812;SDS011;16707;48.106;11.548;2023-08-21T05:43:24;7.13;;;5.32;;
29812;SDS011;16707;48.106;11.548;2023-08-21T05:45:51;7.70;;;5.72;;
29812;SDS011;16707;48.106;11.548;2023-08-21T05:48:18;7.20;;;5.03;;
29812;SDS011;16707;48.106;11.548;2023-08-21T05:50:50;9.32;;;5.55;;
29812;SDS011;16707;48.106;11.548;2023-08-21T05:53:17;6.95;;;5.18;;
29812;SDS011;16707;48.106;11.548;2023-08-21T05:55:44;9.75;;;5.45;;
29812;SDS011;16707;48.106;11.548;2023-08-21T05:58:13;8.10;;;5.57;;
29812;SDS011;16707;48.106;11.548;2023-08-21T06:00:40;7.90;;;4.95;;
29812;SDS011;16707;48.106;11.548;2023-08-21T06:03:07;7.50;;;5.30;;
29812;SDS011;16707;48.106;11.548;2023-08-21T06:05:34;6.47;;;4.85;;
29812;SDS011;16707;48.106;11.548;2023-08-21T06:08:01;5.88;;;4.80;;
29812;SDS011;16707;48.106;11.548;2023-08-21T06:10:30;5.50;;;5.00;;
29812;SDS011;16707;48.106;11.548;2023-08-21T06:12:58;7.88;;;5.43;;
29812;SDS011;16707;48.106;11.548;2023-08-21T06:15:26;5.43;;;4.72;;
29812;SDS011;16707;48.106;11.548;2023-08-21T06:17:53;7.00;;;5.28;;
29812;SDS011;16707;48.106;11.548;2023-08-21T06:20:20;5.63;;;5.10;;
29812;SDS011;16707;48.106;11.548;2023-08-21T06:22:47;7.18;;;5.28;;
29812;SDS011;16707;48.106;11.548;2023-08-21T06:25:14;6.30;;;5.00;;
29812;SDS011;16707;48.106;11.548;2023-08-21T06:27:41;8.13;;;5.50;;
29812;SDS011;16707;48.106;11.548;2023-08-21T06:30:08;6.50;;;4.97;;
29812;SDS011;16707;48.106;11.548;2023-08-21T06:32:38;8.82;;;5.30;;
29812;SDS011;16707;48.106;11.548;2023-08-21T06:35:05;6.93;;;5.22;;
29812;SDS011;16707;48.106;11.548;2023-08-21T06:37:33;8.43;;;5.18;;
29812;SDS011;16707;48.106;11.548;2023-08-21T06:40:00;10.75;;;5.35;;
29812;SDS011;16707;48.106;11.548;2023-08-21T06:42:27;5.82;;;5.18;;
29812;SDS011;16707;48.106;11.548;2023-08-21T06:44:54;8.60;;;5.82;;
29812;SDS011;16707;48.106;11.548;2023-08-21T06:47:21;7.75;;;5.47;;
29812;SDS011;16707;48.106;11.548;2023-08-21T06:49:49;7.20;;;5.78;;
29812;SDS011;16707;48.106;11.548;2023-08-21T06:52:16;7.78;;;5.32;;
29812;SDS011;16707;48.106;11.548;2023-08-21T06:54:43;6.03;;;5.53;;
29812;SDS011;16707;48.106;11.548;2023-08-21T06:57:11;7.00;;;5.43;;
29812;SDS011;16707;48.106;11.548;2023-08-21T06:59:38;5.72;;;5.13;;
29812;SDS011;16707;48.106;11.548;2023-08-21T07:02:05;6.53;;;5.72;;
29812;SDS011;16707;48.106;11.548;2023-08-21T07:04:32;5.88;;;5.28;;
29812;SDS011;16707;48.106;11.548;2023-08-21T07:07:01;9.25;;;6.28;;
29812;SDS011;16707;48.106;11.548;2023-08-21T07:09:28;12.55;;;8.07;;
29812;SDS011;16707;48.106;11.548;2023-08-21T07:11:55;11.23;;;6.97;;
29812;SDS011;16707;48.106;11.548;2023-08-21T07:14:22;13.52;;;7.13;;
29812;SDS011;16707;48.106;11.548;2023-08-21T07:16:49;7.78;;;6.00;;
29812;SDS011;16707;48.106;11.548;2023-08-21T07:19:19;10.57;;;6.88;;
29812;SDS011;16707;48.106;11.548;2023-08-21T07:21:46;10.00;;;6.70;;
29812;SDS011;16707;48.106;11.548;2023-08-21T07:24:14;7.25;;;6.25;;
29812;SDS011;16707;48.106;11.548;2023-08-21T07:26:41;9.27;;;6.40;;
29812;SDS011;16707;48.106;11.548;2023-08-21T07:29:08;7.95;;;6.43;;
29812;SDS011;16707;48.106;11.548;2023-08-21T07:31:35;6.18;;;5.57;;
29812;SDS011;16707;48.106;11.548;2023-08-21T07:34:02;6.55;;;5.95;;
29812;SDS011;16707;48.106;11.548;2023-08-21T07:36:31;8.57;;;7.30;;
29812;SDS011;16707;48.106;11.548;2023-08-21T07:38:58;8.55;;;6.60;;
29812;SDS011;16707;48.106;11.548;2023-08-21T07:41:29;7.60;;;5.80;;
29812;SDS011;16707;48.106;11.548;2023-08-21T07:43:57;8.18;;;6.40;;
29812;SDS011;16707;48.106;11.548;2023-08-21T07:46:24;7.90;;;6.75;;
29812;SDS011;16707;48.106;11.548;2023-08-21T07:48:52;8.07;;;6.65;;
29812;SDS011;16707;48.106;11.548;2023-08-21T07:51:19;8.05;;;6.40;;
29812;SDS011;16707;48.106;11.548;2023-08-21T07:53:46;9.15;;;6.45;;
29812;SDS011;16707;48.106;11.548;2023-08-21T07:56:12;9.90;;;6.55;;
29812;SDS011;16707;48.106;11.548;2023-08-21T07:58:41;7.57;;;6.78;;
29812;SDS011;16707;48.106;11.548;2023-08-21T08:01:08;8.02;;;6.65;;
29812;SDS011;16707;48.106;11.548;2023-08-21T08:03:35;9.20;;;6.88;;
29812;SDS011;16707;48.106;11.548;2023-08-21T08:06:02;8.40;;;6.20;;
29812;SDS011;16707;48.106;11.548;2023-08-21T08:08:29;6.80;;;6.03;;
29812;SDS011;16707;48.106;11.548;2023-08-21T08:11:00;7.38;;;5.90;;
29812;SDS011;16707;48.106;11.548;2023-08-21T08:13:28;7.18;;;6.47;;
29812;SDS011;16707;48.106;11.548;2023-08-21T08:15:57;6.88;;;6.20;;
29812;SDS011;16707;48.106;11.548;2023-08-21T08:18:24;7.13;;;6.30;;
29812;SDS011;16707;48.106;11.548;2023-08-21T08:20:51;8.18;;;7.20;;
29812;SDS011;16707;48.106;11.548;2023-08-21T08:23:19;7.45;;;6.75;;
29812;SDS011;16707;48.106;11.548;2023-08-21T08:25:48;8.65;;;7.03;;
29812;SDS011;16707;48.106;11.548;2023-08-21T08:28:19;7.18;;;6.38;;
29812;SDS011;16707;48.106;11.548;2023-08-21T08:30:46;8.35;;;6.50;;
29812;SDS011;16707;48.106;11.548;2023-08-21T08:33:14;8.20;;;6.60;;
29812;SDS011;16707;48.106;11.548;2023-08-21T08:35:42;7.35;;;6.35;;
29812;SDS011;16707;48.106;11.548;2023-08-21T08:38:09;9.70;;;6.53;;
29812;SDS011;16707;48.106;11.548;2023-08-21T08:40:37;7.85;;;6.63;;
29812;SDS011;16707;48.106;11.548;2023-08-21T08:43:11;6.80;;;6.10;;
29812;SDS011;16707;48.106;11.548;2023-08-21T08:45:41;9.00;;;6.80;;
29812;SDS011;16707;48.106;11.548;2023-08-21T08:48:11;12.82;;;6.93;;
29812;SDS011;16707;48.106;11.548;2023-08-21T08:50:40;6.72;;;5.95;;
29812;SDS011;16707;48.106;11.548;2023-08-21T08:53:08;10.82;;;6.55;;
29812;SDS011;16707;48.106;11.548;2023-08-21T08:55:36;6.90;;;6.20;;
29812;SDS011;16707;48.106;11.548;2023-08-21T08:58:03;7.03;;;6.00;;
29812;SDS011;16707;48.106;11.548;2023-08-21T09:00:30;6.38;;;5.78;;
29812;SDS011;16707;48.106;11.548;2023-08-21T09:02:58;7.45;;;5.70;;
29812;SDS011;16707;48.106;11.548;2023-08-21T09:05:25;8.52;;;6.03;;
29812;SDS011;16707;48.106;11.548;2023-08-21T09:10:39;7.75;;;5.72;;
29812;SDS011;16707;48.106;11.548;2023-08-21T09:13:14;6.00;;;5.40;;
29812;SDS011;16707;48.106;11.548;2023-08-21T09:15:43;6.13;;;5.30;;
29812;SDS011;16707;48.106;11.548;2023-08-21T09:18:12;5.90;;;5.30;;
29812;SDS011;16707;48.106;11.548;2023-08-21T09:20:42;7.35;;;5.55;;
29812;SDS011;16707;48.106;11.548;2023-08-21T09:23:14;6.15;;;5.55;;
29812;SDS011;16707;48.106;11.548;2023-08-21T09:25:44;5.95;;;5.35;;
29812;SDS011;16707;48.106;11.548;2023-08-21T09:28:13;6.68;;;5.20;;
29812;SDS011;16707;48.106;11.548;2023-08-21T09:30:44;6.57;;;5.90;;
29812;SDS011;16707;48.106;11.548;2023-08-21T09:33:12;7.43;;;5.25;;
29812;SDS011;16707;48.106;11.548;2023-08-21T09:35:39;6.28;;;5.68;;
29812;SDS011;16707;48.106;11.548;2023-08-21T09:38:07;5.40;;;4.80;;
29812;SDS011;16707;48.106;11.548;2023-08-21T09:40:35;5.88;;;5.20;;
29812;SDS011;16707;48.106;11.548;2023-08-21T09:43:07;5.28;;;4.65;;
29812;SDS011;16707;48.106;11.548;2023-08-21T09:45:34;5.45;;;4.95;;
29812;SDS011;16707;48.106;11.548;2023-08-21T09:48:02;7.45;;;5.05;;
29812;SDS011;16707;48.106;11.548;2023-08-21T09:50:30;5.78;;;4.68;;
29812;SDS011;16707;48.106;11.548;2023-08-21T09:52:58;5.18;;;4.60;;
29812;SDS011;16707;48.106;11.548;2023-08-21T09:55:25;6.25;;;4.80;;
29812;SDS011;16707;48.106;11.548;2023-08-21T09:57:56;5.72;;;4.93;;
29812;SDS011;16707;48.106;11.548;2023-08-21T10:00:28;5.65;;;5.15;;
29812;SDS011;16707;48.106;11.548;2023-08-21T10:02:58;6.15;;;5.38;;
29812;SDS011;16707;48.106;11.548;2023-08-21T10:05:29;6.05;;;5.00;;
29812;SDS011;16707;48.106;11.548;2023-08-21T10:07:58;6.45;;;5.28;;
29812;SDS011;16707;48.106;11.548;2023-08-21T10:10:29;6.32;;;5.72;;
29812;SDS011;16707;48.106;11.548;2023-08-21T10:12:58;6.45;;;5.35;;
29812;SDS011;16707;48.106;11.548;2023-08-21T10:15:27;5.45;;;4.95;;
29812;SDS011;16707;48.106;11.548;2023-08-21T10:17:55;5.35;;;4.70;;
29812;SDS011;16707;48.106;11.548;2023-08-21T10:20:23;7.13;;;5.25;;
29812;SDS011;16707;48.106;11.548;2023-08-21T10:22:52;9.60;;;5.72;;
29812;SDS011;16707;48.106;11.548;2023-08-21T10:25:21;9.55;;;8.52;;
29812;SDS011;16707;48.106;11.548;2023-08-21T10:27:51;5.90;;;5.40;;
29812;SDS011;16707;48.106;11.548;2023-08-21T10:30:22;5.72;;;5.13;;
29812;SDS011;16707;48.106;11.548;2023-08-21T10:32:51;6.40;;;5.20;;
29812;SDS011;16707;48.106;11.548;2023-08-21T10:35:20;6.45;;;5.85;;
29812;SDS011;16707;48.106;11.548;2023-08-21T10:38:05;6.72;;;6.00;;
29812;SDS011;16707;48.106;11.548;2023-08-21T10:40:33;6.45;;;5.75;;
29812;SDS011;16707;48.106;11.548;2023-08-21T10:43:00;6.93;;;6.22;;
29812;SDS011;16707;48.106;11.548;2023-08-21T10:45:29;6.85;;;5.80;;
29812;SDS011;16707;48.106;11.548;2023-08-21T10:47:57;6.10;;;5.45;;
29812;SDS011;16707;48.106;11.548;2023-08-21T10:50:24;6.72;;;5.20;;
29812;SDS011;16707;48.106;11.548;2023-08-21T10:52:52;7.05;;;5.82;;
29812;SDS011;16707;48.106;11.548;2023-08-21T10:55:19;7.82;;;5.80;;
29812;SDS011;16707;48.106;11.548;2023-08-21T10:57:47;5.88;;;5.28;;
29812;SDS011;16707;48.106;11.548;2023-08-21T11:00:15;5.40;;;4.65;;
29812;SDS011;16707;48.106;11.548;2023-08-21T11:02:47;6.18;;;5.57;;
29812;SDS011;16707;48.106;11.548;2023-08-21T11:05:15;5.60;;;5.10;;
29812;SDS011;16707;48.106;11.548;2023-08-21T11:07:43;5.80;;;5.20;;
29812;SDS011;16707;48.106;11.548;2023-08-21T11:10:11;6.03;;;5.45;;
29812;SDS011;16707;48.106;11.548;2023-08-21T11:12:49;9.35;;;5.63;;
29812;SDS011;16707;48.106;11.548;2023-08-21T11:15:17;6.72;;;5.63;;
29812;SDS011;16707;48.106;11.548;2023-08-21T11:17:54;6.18;;;5.55;;
29812;SDS011;16707;48.106;11.548;2023-08-21T11:20:27;6.13;;;5.25;;
29812;SDS011;16707;48.106;11.548;2023-08-21T11:22:58;5.90;;;5.32;;
29812;SDS011;16707;48.106;11.548;2023-08-21T11:25:27;6.22;;;5.50;;
29812;SDS011;16707;48.106;11.548;2023-08-21T11:27:55;6.95;;;5.75;;
29812;SDS011;16707;48.106;11.548;2023-08-21T11:30:22;5.97;;;5.47;;
29812;SDS011;16707;48.106;11.548;2023-08-21T11:33:04;7.15;;;6.00;;
29812;SDS011;16707;48.106;11.548;2023-08-21T11:35:32;5.85;;;5.28;;
29812;SDS011;16707;48.106;11.548;2023-08-21T11:37:59;7.32;;;5.05;;
29812;SDS011;16707;48.106;11.548;2023-08-21T11:40:26;6.15;;;5.50;;
29812;SDS011;16707;48.106;11.548;2023-08-21T11:42:53;6.47;;;5.47;;
29812;SDS011;16707;48.106;11.548;2023-08-21T11:45:26;6.88;;;5.85;;
29812;SDS011;16707;48.106;11.548;2023-08-21T11:47:55;8.00;;;4.88;;
29812;SDS011;16707;48.106;11.548;2023-08-21T11:50:23;7.18;;;5.32;;
29812;SDS011;16707;48.106;11.548;2023-08-21T11:52:52;7.25;;;5.18;;
29812;SDS011;16707;48.106;11.548;2023-08-21T11:55:21;5.72;;;5.22;;
29812;SDS011;16707;48.106;11.548;2023-08-21T11:57:49;6.32;;;5.70;;
29812;SDS011;16707;48.106;11.548;2023-08-21T12:00:17;6.18;;;5.07;;
29812;SDS011;16707;48.106;11.548;2023-08-21T12:02:55;6.00;;;5.40;;
29812;SDS011;16707;48.106;11.548;2023-08-21T12:05:24;10.05;;;5.63;;
29812;SDS011;16707;48.106;11.548;2023-08-21T12:07:52;9.57;;;5.60;;
29812;SDS011;16707;48.106;11.548;2023-08-21T12:10:23;6.82;;;5.85;;
29812;SDS011;16707;48.106;11.548;2023-08-21T12:12:50;7.22;;;5.68;;
29812;SDS011;16707;48.106;11.548;2023-08-21T12:15:18;7.47;;;5.57;;
29812;SDS011;16707;48.106;11.548;2023-08-21T12:17:45;5.43;;;4.85;;
29812;SDS011;16707;48.106;11.548;2023-08-21T12:20:13;6.10;;;5.50;;
29812;SDS011;16707;48.106;11.548;2023-08-21T12:22:41;6.45;;;5.85;;
29812;SDS011;16707;48.106;11.548;2023-08-21T12:25:08;6.07;;;5.47;;
29812;SDS011;16707;48.106;11.548;2023-08-21T12:27:36;6.78;;;5.50;;
29812;SDS011;16707;48.106;11.548;2023-08-21T12:30:03;7.15;;;5.47;;
29812;SDS011;16707;48.106;11.548;2023-08-21T12:32:31;6.00;;;5.40;;
29812;SDS011;16707;48.106;11.548;2023-08-21T12:34:58;7.97;;;5.40;;
29812;SDS011;16707;48.106;11.548;2023-08-21T12:37:25;6.07;;;5.22;;
29812;SDS011;16707;48.106;11.548;2023-08-21T12:39:54;5.55;;;5.05;;
29812;SDS011;16707;48.106;11.548;2023-08-21T12:42:21;6.15;;;5.55;;
29812;SDS011;16707;48.106;11.548;2023-08-21T12:44:48;6.70;;;5.40;;
29812;SDS011;16707;48.106;11.548;2023-08-21T12:47:15;5.55;;;5.00;;
29812;SDS011;16707;48.106;11.548;2023-08-21T12:49:42;5.55;;;5.00;;
29812;SDS011;16707;48.106;11.548;2023-08-21T12:52:09;6.60;;;5.13;;
29812;SDS011;16707;48.106;11.548;2023-08-21T12:54:37;5.50;;;5.00;;
29812;SDS011;16707;48.106;11.548;2023-08-21T12:57:06;5.28;;;4.78;;
29812;SDS011;16707;48.106;11.548;2023-08-21T12:59:36;6.47;;;4.53;;
29812;SDS011;16707;48.106;11.548;2023-08-21T13:02:03;5.78;;;5.05;;
29812;SDS011;16707;48.106;11.548;2023-08-21T13:04:30;5.75;;;4.90;;
29812;SDS011;16707;48.106;11.548;2023-08-21T13:06:57;5.57;;;5.07;;
29812;SDS011;16707;48.106;11.548;2023-08-21T13:09:25;5.35;;;4.93;;
29812;SDS011;16707;48.106;11.548;2023-08-21T13:11:53;6.03;;;4.95;;
29812;SDS011;16707;48.106;11.548;2023-08-21T13:14:22;5.03;;;4.53;;
29812;SDS011;16707;48.106;11.548;2023-08-21T13:16:49;7.97;;;5.15;;
29812;SDS011;16707;48.106;11.548;2023-08-21T13:19:16;5.60;;;5.00;;
29812;SDS011;16707;48.106;11.548;2023-08-21T13:21:43;5.93;;;4.95;;
29812;SDS011;16707;48.106;11.548;2023-08-21T13:24:10;5.45;;;4.80;;
29812;SDS011;16707;48.106;11.548;2023-08-21T13:26:37;6.35;;;5.03;;
29812;SDS011;16707;48.106;11.548;2023-08-21T13:29:04;5.13;;;4.63;;
29812;SDS011;16707;48.106;11.548;2023-08-21T13:31:34;5.07;;;4.68;;
29812;SDS011;16707;48.106;11.548;2023-08-21T13:34:01;5.85;;;4.75;;
29812;SDS011;16707;48.106;11.548;2023-08-21T13:36:28;5.88;;;4.60;;
29812;SDS011;16707;48.106;11.548;2023-08-21T13:38:55;7.72;;;4.82;;
29812;SDS011;16707;48.106;11.548;2023-08-21T13:41:23;4.97;;;4.47;;
29812;SDS011;16707;48.106;11.548;2023-08-21T13:43:50;5.57;;;5.07;;
29812;SDS011;16707;48.106;11.548;2023-08-21T13:46:17;8.48;;;4.93;;
29812;SDS011;16707;48.106;11.548;2023-08-21T13:48:46;5.18;;;4.70;;
29812;SDS011;16707;48.106;11.548;2023-08-21T13:51:13;7.15;;;5.05;;
29812;SDS011;16707;48.106;11.548;2023-08-21T13:53:41;5.65;;;5.05;;
29812;SDS011;16707;48.106;11.548;2023-08-21T13:56:08;5.75;;;4.95;;
29812;SDS011;16707;48.106;11.548;2023-08-21T13:58:35;6.35;;;4.88;;
29812;SDS011;16707;48.106;11.548;2023-08-21T14:01:02;5.07;;;4.53;;
29812;SDS011;16707;48.106;11.548;2023-08-21T14:03:29;7.15;;;5.07;;
29812;SDS011;16707;48.106;11.548;2023-08-21T14:05:57;7.00;;;4.93;;
29812;SDS011;16707;48.106;11.548;2023-08-21T14:08:24;6.05;;;5.00;;
29812;SDS011;16707;48.106;11.548;2023-08-21T14:10:51;5.28;;;4.78;;
29812;SDS011;16707;48.106;11.548;2023-08-21T14:13:18;6.35;;;4.63;;
29812;SDS011;16707;48.106;11.548;2023-08-21T14:15:46;5.20;;;4.70;;
29812;SDS011;16707;48.106;11.548;2023-08-21T14:18:14;6.18;;;5.07;;
29812;SDS011;16707;48.106;11.548;2023-08-21T14:20:41;7.63;;;5.30;;
29812;SDS011;16707;48.106;11.548;2023-08-21T14:23:09;5.75;;;5.15;;
29812;SDS011;16707;48.106;11.548;2023-08-21T14:25:36;5.40;;;4.85;;
29812;SDS011;16707;48.106;11.548;2023-08-21T14:28:03;5.45;;;4.95;;
29812;SDS011;16707;48.106;11.548;2023-08-21T14:30:31;5.22;;;4.75;;
29812;SDS011;16707;48.106;11.548;2023-08-21T14:32:58;6.22;;;5.05;;
29812;SDS011;16707;48.106;11.548;2023-08-21T14:35:25;6.50;;;5.50;;